createdAt,value
2019-02-07T00:03:18.814Z,100.00
2019-02-07T00:18:21.372Z,100.00
2019-02-07T00:33:24.005Z,100.00
2019-02-07T00:48:28.411Z,100.00
2019-02-07T01:03:30.969Z,100.00
2019-02-07T01:18:34.148Z,100.00
2019-02-07T01:33:36.874Z,100.00
2019-02-07T01:48:40.384Z,100.00
2019-02-07T02:03:43.074Z,100.00
2019-02-07T02:18:45.643Z,100.00
2019-02-07T02:33:48.227Z,100.00
2019-02-07T02:48:52.389Z,100.00
2019-02-07T03:04:00.855Z,100.00
2019-02-07T03:19:08.343Z,100.00
2019-02-07T03:34:22.769Z,100.00
2019-02-07T03:49:38.235Z,100.00
2019-02-07T04:04:47.753Z,100.00
2019-02-07T04:19:56.733Z,100.00
2019-02-07T04:35:05.828Z,100.00
2019-02-07T04:50:14.143Z,100.00
2019-02-07T05:21:01.356Z,100.00
2019-02-07T05:51:40.149Z,100.00
2019-02-07T06:06:46.695Z,100.00
2019-02-07T06:21:52.478Z,100.00
2019-02-07T06:37:15.057Z,100.00
2019-02-07T07:07:54.791Z,86.04
2019-02-07T07:22:59.361Z,100.00
2019-02-07T07:38:40.689Z,100.00
2019-02-07T07:54:16.221Z,100.00
2019-02-07T08:09:51.571Z,100.00
2019-02-07T08:25:30.318Z,98.00
2019-02-07T08:41:09.531Z,98.05
2019-02-07T08:56:44.568Z,97.76
2019-02-07T09:12:21.759Z,95.35
2019-02-07T09:27:59.200Z,92.35
2019-02-07T09:43:34.447Z,88.21
2019-02-07T09:59:13.658Z,85.62
2019-02-07T10:31:02.532Z,73.25
2019-02-07T10:46:37.760Z,77.58
2019-02-07T11:02:25.694Z,80.87
2019-02-07T11:34:12.255Z,81.71
2019-02-07T12:22:27.681Z,73.91
2019-02-07T13:10:28.973Z,83.08
2019-02-07T13:26:05.137Z,86.43
2019-02-07T13:41:44.487Z,89.89
2019-02-07T13:57:24.287Z,88.13
2019-02-07T14:13:03.461Z,88.92
2019-02-07T14:28:42.405Z,90.62
2019-02-07T15:00:27.571Z,93.22
2019-02-07T15:16:00.800Z,94.48
2019-02-07T15:31:33.751Z,94.92
2019-02-07T15:47:08.814Z,97.70
2019-02-07T16:02:42.003Z,100.00
2019-02-07T16:18:15.065Z,100.00
2019-02-07T16:33:47.937Z,100.00
2019-02-07T16:49:21.348Z,100.00
2019-02-07T17:04:54.183Z,100.00
2019-02-07T17:20:32.533Z,100.00
2019-02-07T17:36:05.533Z,100.00
2019-02-07T17:51:39.948Z,100.00
2019-02-07T18:07:13.815Z,100.00
2019-02-07T18:22:46.980Z,100.00
2019-02-07T18:38:20.285Z,100.00
2019-02-07T18:53:53.841Z,100.00
2019-02-07T19:09:28.891Z,100.00
2019-02-07T19:25:02.278Z,100.00
2019-02-07T19:40:37.699Z,100.00
2019-02-07T19:56:10.856Z,99.14
2019-02-07T20:11:43.912Z,100.00
2019-02-07T20:27:17.784Z,100.00
2019-02-07T20:42:51.226Z,100.00
2019-02-07T20:58:25.268Z,100.00
2019-02-07T21:13:58.448Z,100.00
2019-02-07T21:29:32.076Z,100.00
2019-02-07T21:45:05.257Z,100.00
2019-02-07T22:00:56.446Z,100.00
2019-02-07T22:16:29.453Z,100.00
2019-02-07T22:31:33.035Z,100.00
2019-02-07T22:46:38.788Z,100.00
2019-02-07T23:01:44.193Z,100.00
2019-02-07T23:16:46.769Z,100.00
2019-02-07T23:31:49.456Z,100.00
2019-02-07T23:46:52.009Z,100.00
